createdAt,value
2022-10-14T00:01:15.769Z,62.88
2022-10-14T00:04:48.006Z,62.88
2022-10-14T00:08:14.642Z,62.84
2022-10-14T00:11:41.931Z,63.11
2022-10-14T00:15:11.060Z,63.32
2022-10-14T00:18:37.595Z,63.15
2022-10-14T00:22:04.510Z,63.48
2022-10-14T00:25:31.363Z,63.15
2022-10-14T00:28:59.747Z,63.13
2022-10-14T00:32:30.486Z,63.59
2022-10-14T00:35:59.567Z,63.57
2022-10-14T00:39:30.635Z,63.76
2022-10-14T00:42:57.621Z,63.83
2022-10-14T00:46:24.644Z,63.99
2022-10-14T00:49:55.421Z,63.81
2022-10-14T00:53:23.089Z,64.11
2022-10-14T00:56:51.777Z,64.01
2022-10-14T01:00:22.291Z,64.21
2022-10-14T01:03:49.882Z,64.21
2022-10-14T01:07:32.980Z,64.29
2022-10-14T01:11:08.960Z,64.29
2022-10-14T01:14:46.239Z,64.03
2022-10-14T01:18:28.659Z,64.20
2022-10-14T01:22:03.425Z,64.27
2022-10-14T01:25:35.199Z,64.41
2022-10-14T01:29:16.785Z,64.47
2022-10-14T01:32:52.028Z,64.70
2022-10-14T01:36:24.066Z,64.62
2022-10-14T01:39:55.919Z,64.58
2022-10-14T01:43:25.845Z,64.92
2022-10-14T01:46:56.490Z,65.09
2022-10-14T01:50:25.765Z,65.08
2022-10-14T01:53:59.297Z,65.07
2022-10-14T01:57:29.168Z,65.15
2022-10-14T02:00:57.582Z,65.32
2022-10-14T02:04:25.178Z,65.26
2022-10-14T02:07:58.941Z,65.41
2022-10-14T02:11:26.853Z,65.38
2022-10-14T02:15:02.403Z,65.18
2022-10-14T02:18:37.033Z,65.37
2022-10-14T02:22:10.342Z,65.19
2022-10-14T02:25:40.369Z,65.24
2022-10-14T02:29:08.682Z,65.19
2022-10-14T02:32:36.895Z,64.95
2022-10-14T02:36:06.886Z,65.17
2022-10-14T02:39:40.522Z,65.38
2022-10-14T02:43:10.452Z,65.44
2022-10-14T02:46:37.517Z,65.49
2022-10-14T02:50:04.461Z,65.41
2022-10-14T02:53:31.988Z,65.75
2022-10-14T02:56:58.419Z,65.38
2022-10-14T03:00:25.279Z,65.47
2022-10-14T03:03:53.906Z,65.70
2022-10-14T03:07:22.634Z,65.88
2022-10-14T03:10:51.054Z,65.81
2022-10-14T03:14:18.066Z,65.76
2022-10-14T03:17:45.717Z,65.74
2022-10-14T03:21:12.714Z,65.62
2022-10-14T03:24:40.967Z,65.62
2022-10-14T03:28:23.790Z,65.80
2022-10-14T03:32:12.555Z,65.86
2022-10-14T03:36:09.412Z,66.20
2022-10-14T03:39:42.952Z,65.84
2022-10-14T03:43:09.597Z,66.04
2022-10-14T03:46:43.513Z,66.37
2022-10-14T03:50:11.700Z,66.16
2022-10-14T03:53:48.151Z,66.18
2022-10-14T03:57:18.406Z,66.14
2022-10-14T04:00:49.952Z,66.45
2022-10-14T04:04:26.025Z,66.87
2022-10-14T04:07:52.863Z,66.98
2022-10-14T04:11:19.847Z,66.99
2022-10-14T04:14:48.091Z,66.88
2022-10-14T04:18:14.931Z,66.74
2022-10-14T04:21:42.225Z,66.62
2022-10-14T04:25:11.456Z,66.71
2022-10-14T04:28:39.061Z,66.58
2022-10-14T04:32:13.461Z,66.74
2022-10-14T04:35:42.847Z,66.83
2022-10-14T04:39:16.308Z,66.81
2022-10-14T04:42:43.602Z,66.78
2022-10-14T04:46:18.716Z,66.85
2022-10-14T04:49:45.686Z,66.80
2022-10-14T04:53:21.769Z,66.88
2022-10-14T04:56:59.263Z,66.79
2022-10-14T05:00:26.335Z,67.01
2022-10-14T05:04:01.500Z,67.01
2022-10-14T05:07:32.780Z,66.83
2022-10-14T05:11:08.643Z,67.05
2022-10-14T05:14:40.928Z,66.79
2022-10-14T05:18:15.919Z,66.71
2022-10-14T05:21:57.612Z,66.70
2022-10-14T05:25:31.326Z,66.45
2022-10-14T05:28:58.932Z,66.55
2022-10-14T05:32:25.943Z,66.56
2022-10-14T05:36:00.037Z,67.12
2022-10-14T05:39:29.577Z,66.76
2022-10-14T05:42:57.245Z,67.07
2022-10-14T05:46:24.106Z,66.63
2022-10-14T05:49:53.686Z,67.02
2022-10-14T05:53:20.736Z,67.23
2022-10-14T05:56:49.086Z,67.26
2022-10-14T06:00:24.671Z,67.31
2022-10-14T06:03:54.848Z,67.71
2022-10-14T06:07:21.377Z,67.86
2022-10-14T06:10:48.124Z,67.83
2022-10-14T06:14:15.727Z,68.32
2022-10-14T06:17:43.710Z,68.13
2022-10-14T06:21:12.167Z,67.69
2022-10-14T06:24:39.353Z,68.21
2022-10-14T06:28:10.251Z,68.25
2022-10-14T06:31:36.696Z,67.94
2022-10-14T06:35:03.803Z,68.19
2022-10-14T06:38:30.248Z,68.08
2022-10-14T06:41:56.928Z,67.97
2022-10-14T06:45:23.705Z,68.18
2022-10-14T06:48:51.182Z,68.07
2022-10-14T06:52:20.229Z,68.27
2022-10-14T06:55:48.366Z,68.39
2022-10-14T06:59:20.235Z,68.24
2022-10-14T07:02:49.912Z,68.28
2022-10-14T07:06:17.271Z,68.42
2022-10-14T07:09:43.703Z,68.49
2022-10-14T07:13:12.023Z,68.49
2022-10-14T07:16:38.760Z,68.57
2022-10-14T07:20:06.042Z,68.66
2022-10-14T07:23:32.770Z,68.69
2022-10-14T07:26:59.246Z,68.69
2022-10-14T07:30:26.202Z,68.68
2022-10-14T07:33:53.130Z,68.73
2022-10-14T07:37:20.561Z,68.87
2022-10-14T07:40:47.485Z,68.81
2022-10-14T07:44:17.033Z,68.73
2022-10-14T07:47:43.594Z,68.84
2022-10-14T07:51:10.626Z,68.84
2022-10-14T07:54:36.911Z,68.82
2022-10-14T07:58:03.542Z,68.86
2022-10-14T08:01:30.324Z,69.04
2022-10-14T08:05:18.875Z,69.00
2022-10-14T08:08:46.935Z,68.94
2022-10-14T08:12:14.519Z,69.10
2022-10-14T08:15:43.530Z,69.04
2022-10-14T08:19:15.131Z,68.94
2022-10-14T08:22:41.775Z,68.98
2022-10-14T08:26:21.625Z,68.91
2022-10-14T08:29:55.950Z,68.75
2022-10-14T08:33:24.565Z,68.72
2022-10-14T08:36:51.406Z,68.63
2022-10-14T08:40:19.654Z,68.64
2022-10-14T08:43:52.123Z,68.83
2022-10-14T08:47:23.133Z,68.83
2022-10-14T08:50:57.519Z,68.58
2022-10-14T08:54:32.093Z,68.54
2022-10-14T08:58:05.026Z,68.45
2022-10-14T09:01:36.250Z,68.43
2022-10-14T09:05:05.309Z,68.23
2022-10-14T09:08:40.069Z,68.30
2022-10-14T09:12:13.320Z,68.48
2022-10-14T09:15:43.202Z,68.45
2022-10-14T09:19:20.192Z,68.44
2022-10-14T09:26:30.247Z,68.25
2022-10-14T09:30:03.439Z,68.20
2022-10-14T09:33:29.543Z,68.11
2022-10-14T09:36:59.661Z,67.98
2022-10-14T09:40:33.899Z,68.15
2022-10-14T09:44:11.692Z,67.98
2022-10-14T09:47:51.223Z,67.81
2022-10-14T09:51:25.412Z,67.78
2022-10-14T09:54:54.016Z,67.67
2022-10-14T09:58:27.579Z,67.61
2022-10-14T10:01:57.786Z,67.65
2022-10-14T10:05:29.808Z,67.76
2022-10-14T10:09:01.674Z,67.50
2022-10-14T10:12:41.864Z,67.28
2022-10-14T10:16:20.054Z,67.28
2022-10-14T10:19:48.354Z,67.31
2022-10-14T10:23:26.501Z,67.16
2022-10-14T10:26:53.286Z,66.99
2022-10-14T10:30:27.541Z,66.70
2022-10-14T10:34:02.027Z,66.78
2022-10-14T10:37:38.642Z,66.72
2022-10-14T10:41:27.440Z,66.43
2022-10-14T10:45:18.731Z,66.47
2022-10-14T10:54:38.237Z,66.15
2022-10-14T10:58:20.800Z,65.94
2022-10-14T11:02:04.438Z,65.70
2022-10-14T11:06:05.971Z,65.54
2022-10-14T11:10:52.852Z,65.50
2022-10-14T11:14:34.637Z,65.33
2022-10-14T11:18:05.462Z,65.13
2022-10-14T11:21:41.731Z,65.05
2022-10-14T11:25:22.999Z,64.87
2022-10-14T11:28:57.968Z,64.71
2022-10-14T11:32:32.124Z,64.42
2022-10-14T11:36:13.731Z,64.30
2022-10-14T11:39:50.117Z,64.17
2022-10-14T11:43:32.662Z,63.83
2022-10-14T11:47:04.758Z,63.78
2022-10-14T11:50:38.250Z,63.64
2022-10-14T11:54:11.807Z,63.57
2022-10-14T11:57:42.901Z,63.50
2022-10-14T12:01:20.569Z,63.46
2022-10-14T12:04:53.504Z,63.40
2022-10-14T12:08:28.475Z,63.12
2022-10-14T12:12:03.178Z,63.10
2022-10-14T12:19:02.369Z,62.95
2022-10-14T12:22:31.923Z,62.77
2022-10-14T12:26:08.296Z,62.64
2022-10-14T12:29:38.810Z,62.70
2022-10-14T12:33:08.228Z,62.56
2022-10-14T12:40:27.626Z,62.57
2022-10-14T12:44:04.815Z,62.40
2022-10-14T12:47:35.445Z,62.14
2022-10-14T12:51:22.363Z,62.08
2022-10-14T12:58:27.372Z,62.07
2022-10-14T13:02:02.223Z,61.86
2022-10-14T13:05:35.180Z,61.81
2022-10-14T13:09:17.799Z,61.91
2022-10-14T13:12:47.605Z,61.79
2022-10-14T13:17:06.057Z,61.90
2022-10-14T13:20:54.061Z,61.98
2022-10-14T13:24:27.048Z,61.82
2022-10-14T13:27:59.185Z,61.80
2022-10-14T13:31:32.227Z,61.82
2022-10-14T13:35:08.889Z,61.72
2022-10-14T13:38:36.619Z,61.63
2022-10-14T13:42:04.711Z,61.58
2022-10-14T13:45:41.144Z,61.51
2022-10-14T13:52:55.200Z,61.54
2022-10-14T13:56:26.764Z,61.52
2022-10-14T14:03:44.779Z,61.61
2022-10-14T14:07:47.695Z,61.55
2022-10-14T14:11:16.637Z,61.31
2022-10-14T14:14:47.264Z,61.33
2022-10-14T14:21:48.540Z,61.45
2022-10-14T14:25:33.422Z,61.30
2022-10-14T14:29:05.257Z,61.26
2022-10-14T14:32:34.562Z,61.34
2022-10-14T14:36:03.459Z,61.50
2022-10-14T14:39:32.956Z,61.39
2022-10-14T14:43:03.030Z,61.38
2022-10-14T14:46:33.509Z,61.43
2022-10-14T14:50:25.389Z,61.47
2022-10-14T14:53:54.540Z,61.73
2022-10-14T14:57:24.305Z,61.81
2022-10-14T15:00:55.308Z,61.81
2022-10-14T15:04:25.546Z,61.80
2022-10-14T15:07:52.958Z,61.84
2022-10-14T15:11:20.800Z,61.77
2022-10-14T15:14:50.150Z,61.86
2022-10-14T15:18:22.197Z,61.77
2022-10-14T15:22:09.208Z,61.88
2022-10-14T15:25:36.628Z,61.99
2022-10-14T15:29:17.113Z,61.94
2022-10-14T15:32:44.916Z,61.88
2022-10-14T15:36:15.183Z,61.90
2022-10-14T15:39:43.323Z,61.79
2022-10-14T15:43:18.158Z,61.93
2022-10-14T15:47:05.070Z,61.99
2022-10-14T15:50:32.298Z,61.87
2022-10-14T15:53:58.799Z,61.88
2022-10-14T15:57:26.233Z,61.80
2022-10-14T16:00:53.965Z,61.94
2022-10-14T16:04:24.996Z,61.92
2022-10-14T16:07:57.559Z,62.00
2022-10-14T16:11:30.120Z,62.04
2022-10-14T16:14:59.635Z,62.10
2022-10-14T16:18:29.625Z,62.24
2022-10-14T16:21:59.651Z,62.27
2022-10-14T16:25:34.546Z,62.38
2022-10-14T16:29:05.468Z,62.40
2022-10-14T16:32:36.259Z,62.45
2022-10-14T16:36:03.205Z,62.52
2022-10-14T16:39:30.725Z,62.54
2022-10-14T16:42:57.809Z,62.52
2022-10-14T16:46:45.408Z,62.59
2022-10-14T16:50:14.246Z,62.52
2022-10-14T16:53:45.716Z,62.56
2022-10-14T16:57:13.592Z,62.71
2022-10-14T17:00:42.888Z,62.72
2022-10-14T17:04:13.575Z,62.82
2022-10-14T17:07:40.987Z,62.88
2022-10-14T17:11:08.313Z,62.84
2022-10-14T17:14:37.928Z,63.01
2022-10-14T17:18:05.761Z,63.10
2022-10-14T17:21:32.854Z,63.28
2022-10-14T17:25:00.556Z,63.30
2022-10-14T17:28:27.347Z,63.35
2022-10-14T17:31:54.659Z,63.42
2022-10-14T17:35:21.303Z,63.56
2022-10-14T17:38:48.728Z,63.43
2022-10-14T17:42:15.724Z,63.57
2022-10-14T17:45:43.285Z,63.73
2022-10-14T17:49:15.313Z,63.48
2022-10-14T17:52:45.349Z,63.73
2022-10-14T17:56:15.270Z,63.67
2022-10-14T17:59:41.979Z,63.52
2022-10-14T18:03:13.025Z,63.52
2022-10-14T18:06:39.887Z,63.61
2022-10-14T18:10:08.430Z,63.71
2022-10-14T18:13:35.767Z,63.76
2022-10-14T18:17:03.276Z,63.82
2022-10-14T18:20:32.175Z,63.77
2022-10-14T18:23:59.589Z,63.89
2022-10-14T18:27:27.370Z,64.02
2022-10-14T18:30:53.904Z,64.21
2022-10-14T18:34:22.542Z,64.08
2022-10-14T18:37:52.833Z,64.05
2022-10-14T18:41:23.769Z,64.11
2022-10-14T18:44:51.942Z,64.18
2022-10-14T18:48:22.344Z,64.02
2022-10-14T18:51:49.495Z,64.15
2022-10-14T18:55:16.124Z,64.35
2022-10-14T18:58:43.012Z,64.52
2022-10-14T19:02:14.832Z,64.67
2022-10-14T19:05:42.404Z,64.51
2022-10-14T19:09:18.453Z,64.44
2022-10-14T19:12:45.259Z,64.66
2022-10-14T19:16:16.884Z,64.71
2022-10-14T19:19:44.954Z,64.80
2022-10-14T19:23:12.221Z,64.87
2022-10-14T19:26:43.180Z,65.15
2022-10-14T19:30:12.330Z,65.30
2022-10-14T19:33:40.970Z,65.33
2022-10-14T19:37:07.564Z,65.31
2022-10-14T19:40:34.076Z,65.35
2022-10-14T19:44:03.672Z,65.16
2022-10-14T19:47:31.008Z,65.35
2022-10-14T19:51:06.287Z,65.26
2022-10-14T19:54:34.280Z,65.34
2022-10-14T19:58:08.317Z,65.46
2022-10-14T20:01:35.699Z,65.54
2022-10-14T20:05:11.813Z,65.51
2022-10-14T20:08:41.397Z,65.66
2022-10-14T20:12:18.289Z,65.86
2022-10-14T20:15:56.398Z,66.09
2022-10-14T20:19:23.760Z,66.26
2022-10-14T20:22:50.757Z,66.38
2022-10-14T20:26:21.144Z,66.31
2022-10-14T20:29:54.201Z,66.38
2022-10-14T20:33:21.720Z,66.43
2022-10-14T20:36:49.570Z,66.59
2022-10-14T20:40:18.584Z,66.52
2022-10-14T20:43:48.327Z,66.63
2022-10-14T20:47:16.897Z,66.67
2022-10-14T20:50:47.264Z,66.84
2022-10-14T20:54:17.587Z,66.70
2022-10-14T20:57:44.920Z,66.86
2022-10-14T21:01:15.401Z,66.93
2022-10-14T21:04:43.989Z,67.00
2022-10-14T21:08:15.772Z,67.04
2022-10-14T21:11:43.839Z,67.03
2022-10-14T21:15:13.303Z,67.18
2022-10-14T21:18:40.142Z,67.13
2022-10-14T21:22:14.947Z,67.31
2022-10-14T21:25:42.590Z,67.35
2022-10-14T21:29:19.911Z,67.36
2022-10-14T21:33:00.625Z,67.44
2022-10-14T21:36:37.296Z,67.55
2022-10-14T21:40:19.079Z,67.79
2022-10-14T21:43:47.144Z,67.81
2022-10-14T21:47:20.510Z,67.71
2022-10-14T21:50:49.497Z,67.61
2022-10-14T21:54:28.318Z,67.62
2022-10-14T21:57:56.353Z,67.79
2022-10-14T22:01:26.377Z,67.88
2022-10-14T22:04:53.432Z,67.99
2022-10-14T22:08:24.226Z,67.96
2022-10-14T22:11:55.161Z,68.00
2022-10-14T22:15:22.109Z,68.23
2022-10-14T22:18:53.889Z,68.12
2022-10-14T22:22:21.138Z,68.37
2022-10-14T22:25:47.771Z,68.49
2022-10-14T22:29:16.570Z,68.47
2022-10-14T22:32:47.306Z,68.60
2022-10-14T22:36:21.058Z,68.52
2022-10-14T22:39:53.265Z,68.63
2022-10-14T22:43:20.448Z,68.71
2022-10-14T22:46:49.462Z,68.76
2022-10-14T22:50:19.151Z,68.57
2022-10-14T22:53:49.817Z,68.55
2022-10-14T22:57:17.277Z,68.54
2022-10-14T23:00:44.190Z,68.61
2022-10-14T23:04:12.412Z,68.65
2022-10-14T23:07:41.769Z,68.71
2022-10-14T23:11:10.341Z,68.48
2022-10-14T23:14:37.222Z,68.72
2022-10-14T23:18:05.363Z,68.69
2022-10-14T23:21:34.033Z,68.76
2022-10-14T23:25:01.171Z,69.03
2022-10-14T23:28:28.576Z,68.85
2022-10-14T23:31:58.443Z,69.15
2022-10-14T23:35:26.282Z,69.24
2022-10-14T23:38:56.311Z,69.30
2022-10-14T23:42:23.159Z,69.09
2022-10-14T23:49:28.207Z,69.13
2022-10-14T23:52:54.880Z,69.32
2022-10-14T23:56:21.687Z,69.17
2022-10-14T23:59:48.423Z,69.01
